Time;durP1;ratioP1;P1;durP2;ratioP2;P2;SDS_P1;SDS_P2;PMS_P1;PMS_P2;Temp;Humidity;BMP_temperature;BMP_pressure;BME280_temperature;BME280_humidity;BME280_pressure;Samples;Min_cycle;Max_cycle;Signal;HPM_P1;HPM_P2
2023/12/13 00:00:32;;;;;;;13.80;6.50;;;;;;;;;;5032551;28;20061;-81
2023/12/13 00:02:59;;;;;;;13.90;6.40;;;;;;;;;;5047741;28;20039;-81
2023/12/13 00:05:25;;;;;;;11.57;6.10;;;;;;;;;;5052332;28;20124;-81
2023/12/13 00:07:51;;;;;;;38.22;7.53;;;;;;;;;;5028094;28;20044;-82
2023/12/13 00:10:17;;;;;;;14.20;7.10;;;;;;;;;;5050118;28;20040;-82
2023/12/13 00:12:43;;;;;;;13.32;6.25;;;;;;;;;;5047568;28;20045;-82
2023/12/13 00:15:09;;;;;;;12.63;6.18;;;;;;;;;;5053327;28;20052;-82
2023/12/13 00:17:35;;;;;;;13.88;7.03;;;;;;;;;;5012278;28;20033;-82
2023/12/13 00:20:05;;;;;;;13.25;7.20;;;;;;;;;;5033290;28;20029;-82
2023/12/13 00:22:31;;;;;;;16.10;6.80;;;;;;;;;;5024692;28;20037;-82
2023/12/13 00:24:57;;;;;;;13.63;6.85;;;;;;;;;;5031609;28;20041;-82
2023/12/13 00:27:23;;;;;;;15.52;7.55;;;;;;;;;;5033894;28;20432;-82
2023/12/13 00:29:49;;;;;;;13.63;6.68;;;;;;;;;;5056517;28;20037;-82
2023/12/13 00:32:15;;;;;;;14.65;6.78;;;;;;;;;;5034070;28;20040;-82
2023/12/13 00:34:41;;;;;;;17.45;7.85;;;;;;;;;;5029959;28;20531;-82
2023/12/13 00:37:07;;;;;;;15.85;6.88;;;;;;;;;;5028728;28;20037;-82
2023/12/13 00:39:33;;;;;;;13.88;6.95;;;;;;;;;;5047172;28;20423;-82
2023/12/13 00:41:59;;;;;;;15.75;7.97;;;;;;;;;;5049653;28;20048;-82
2023/12/13 00:44:25;;;;;;;12.95;6.93;;;;;;;;;;5028259;28;20045;-82
2023/12/13 00:46:51;;;;;;;17.70;7.95;;;;;;;;;;5054240;28;20131;-82
2023/12/13 00:49:16;;;;;;;14.93;7.65;;;;;;;;;;5029260;28;20037;-82
2023/12/13 00:51:43;;;;;;;15.98;7.65;;;;;;;;;;5056300;28;20522;-82
2023/12/13 00:54:08;;;;;;;17.88;7.43;;;;;;;;;;5029361;28;21254;-82
2023/12/13 00:56:36;;;;;;;49.25;10.43;;;;;;;;;;5019046;28;20029;-82
2023/12/13 00:59:03;;;;;;;17.17;8.57;;;;;;;;;;5029480;28;20037;-82
2023/12/13 01:01:29;;;;;;;17.38;7.57;;;;;;;;;;5052155;28;20052;-82
2023/12/13 01:03:55;;;;;;;82.32;11.85;;;;;;;;;;5044038;28;20042;-82
2023/12/13 01:06:21;;;;;;;85.38;13.00;;;;;;;;;;5031440;28;20090;-82
2023/12/13 01:08:47;;;;;;;61.72;10.43;;;;;;;;;;5027444;28;20048;-82
2023/12/13 01:11:13;;;;;;;30.95;9.95;;;;;;;;;;5022856;28;20042;-82
2023/12/13 01:13:41;;;;;;;19.92;9.15;;;;;;;;;;5027526;28;20467;-82
2023/12/13 01:16:07;;;;;;;17.50;8.45;;;;;;;;;;5013144;28;20041;-82
2023/12/13 01:18:33;;;;;;;14.40;8.02;;;;;;;;;;5013329;28;20037;-82
2023/12/13 01:20:59;;;;;;;14.10;8.35;;;;;;;;;;5050427;28;20389;-82
2023/12/13 01:23:27;;;;;;;18.83;9.95;;;;;;;;;;5049268;28;20033;-82
2023/12/13 01:25:53;;;;;;;16.77;8.52;;;;;;;;;;5032568;28;20053;-82
2023/12/13 01:28:19;;;;;;;15.90;8.05;;;;;;;;;;5031771;28;20041;-82
2023/12/13 01:30:45;;;;;;;14.85;7.63;;;;;;;;;;5049129;28;20097;-82
2023/12/13 01:33:11;;;;;;;17.30;9.10;;;;;;;;;;5049318;28;20037;-82
2023/12/13 01:35:37;;;;;;;15.50;8.10;;;;;;;;;;5050893;28;20059;-82
2023/12/13 01:38:03;;;;;;;18.00;8.80;;;;;;;;;;5049845;28;20450;-82
2023/12/13 01:40:29;;;;;;;15.27;7.65;;;;;;;;;;5049686;28;20033;-81
2023/12/13 01:42:55;;;;;;;15.77;7.85;;;;;;;;;;5052127;28;20044;-82
2023/12/13 01:45:21;;;;;;;16.27;7.38;;;;;;;;;;5049466;28;20041;-81
2023/12/13 01:47:47;;;;;;;12.13;7.35;;;;;;;;;;5044388;28;20124;-82
2023/12/13 01:50:14;;;;;;;11.70;6.50;;;;;;;;;;5027199;28;20064;-82
2023/12/13 01:52:40;;;;;;;13.50;6.72;;;;;;;;;;5035307;28;20076;-82
2023/12/13 01:55:08;;;;;;;13.10;5.82;;;;;;;;;;5045755;28;20034;-82
2023/12/13 01:57:34;;;;;;;11.82;6.35;;;;;;;;;;5030433;28;20056;-82
2023/12/13 02:00:00;;;;;;;12.23;6.38;;;;;;;;;;5050091;28;20041;-81
2023/12/13 02:02:26;;;;;;;13.52;6.07;;;;;;;;;;5050893;28;20040;-81
2023/12/13 02:04:53;;;;;;;11.13;6.00;;;;;;;;;;5048466;28;20518;-82
2023/12/13 02:07:19;;;;;;;10.15;5.13;;;;;;;;;;5031949;28;20120;-81
2023/12/13 02:09:45;;;;;;;11.20;5.65;;;;;;;;;;5045978;28;20041;-81
2023/12/13 02:12:11;;;;;;;10.45;6.07;;;;;;;;;;5048762;28;20045;-81
2023/12/13 02:14:37;;;;;;;9.05;5.43;;;;;;;;;;5034351;28;20076;-81
2023/12/13 02:17:03;;;;;;;9.57;5.47;;;;;;;;;;5029661;28;20092;-81
2023/12/13 02:19:29;;;;;;;8.90;5.45;;;;;;;;;;5049889;28;20044;-81
2023/12/13 02:21:55;;;;;;;7.30;4.97;;;;;;;;;;5031772;28;20452;-81
2023/12/13 02:24:23;;;;;;;10.73;4.97;;;;;;;;;;5053061;28;20098;-81
2023/12/13 02:26:50;;;;;;;9.80;5.20;;;;;;;;;;5046845;28;20041;-81
2023/12/13 02:29:17;;;;;;;8.65;5.25;;;;;;;;;;5048122;28;20041;-81
2023/12/13 02:31:44;;;;;;;11.93;5.47;;;;;;;;;;5049777;28;20092;-81
2023/12/13 02:34:10;;;;;;;10.32;5.55;;;;;;;;;;5046074;28;20092;-81
2023/12/13 02:36:36;;;;;;;9.57;5.03;;;;;;;;;;5048490;28;20119;-81
2023/12/13 02:39:03;;;;;;;8.73;5.25;;;;;;;;;;5050217;28;20041;-81
2023/12/13 02:41:32;;;;;;;9.57;4.82;;;;;;;;;;5046397;28;20048;-81
2023/12/13 02:43:58;;;;;;;8.32;4.70;;;;;;;;;;5044625;28;20070;-81
2023/12/13 02:46:24;;;;;;;14.65;5.25;;;;;;;;;;5041807;28;20045;-81
2023/12/13 02:48:50;;;;;;;10.13;4.53;;;;;;;;;;5033334;28;20404;-81
2023/12/13 02:51:16;;;;;;;11.05;5.38;;;;;;;;;;5044591;28;20080;-81
2023/12/13 02:53:42;;;;;;;8.50;4.93;;;;;;;;;;5052571;28;20044;-81
2023/12/13 02:56:08;;;;;;;9.18;4.82;;;;;;;;;;5051273;28;20064;-81
2023/12/13 02:58:34;;;;;;;9.85;4.97;;;;;;;;;;5030932;28;20033;-81
2023/12/13 03:01:00;;;;;;;7.35;4.20;;;;;;;;;;5049558;28;20028;-82
2023/12/13 03:03:26;;;;;;;9.23;4.22;;;;;;;;;;5033945;28;20488;-81
2023/12/13 03:05:52;;;;;;;6.95;4.45;;;;;;;;;;5048933;28;20040;-81
2023/12/13 03:08:18;;;;;;;8.02;4.38;;;;;;;;;;5052821;28;20030;-81
2023/12/13 03:10:44;;;;;;;9.93;5.10;;;;;;;;;;5033805;28;20040;-81
2023/12/13 03:13:10;;;;;;;7.53;4.47;;;;;;;;;;5055020;28;20043;-81
2023/12/13 03:15:36;;;;;;;9.13;4.93;;;;;;;;;;5051376;28;20034;-82
2023/12/13 03:18:02;;;;;;;7.32;4.50;;;;;;;;;;5053573;28;20476;-81
2023/12/13 03:20:28;;;;;;;10.63;4.93;;;;;;;;;;5055356;28;20084;-81
2023/12/13 03:22:54;;;;;;;8.45;5.05;;;;;;;;;;5049499;28;20041;-82
2023/12/13 03:25:20;;;;;;;6.97;4.63;;;;;;;;;;5052058;28;20029;-82
2023/12/13 03:27:46;;;;;;;9.65;4.93;;;;;;;;;;5036280;28;20041;-82
2023/12/13 03:30:12;;;;;;;8.65;4.47;;;;;;;;;;5033272;28;20137;-82
2023/12/13 03:32:39;;;;;;;7.75;4.80;;;;;;;;;;5032277;28;20079;-81
2023/12/13 03:35:06;;;;;;;8.75;4.65;;;;;;;;;;5052951;28;20403;-81
2023/12/13 03:37:33;;;;;;;9.32;4.60;;;;;;;;;;5055698;28;20040;-81
2023/12/13 03:39:59;;;;;;;7.45;4.25;;;;;;;;;;5042104;28;20045;-81
2023/12/13 03:42:25;;;;;;;12.15;5.82;;;;;;;;;;5066777;28;20128;-81
2023/12/13 03:44:51;;;;;;;10.77;4.88;;;;;;;;;;5021246;28;20033;-81
2023/12/13 03:47:17;;;;;;;9.32;5.78;;;;;;;;;;5059960;28;20806;-81
2023/12/13 03:49:43;;;;;;;11.88;5.43;;;;;;;;;;5051566;28;20065;-81
2023/12/13 03:52:10;;;;;;;10.45;5.47;;;;;;;;;;5030751;28;20045;-81
2023/12/13 03:54:36;;;;;;;9.35;4.80;;;;;;;;;;5015278;28;20127;-82
2023/12/13 03:57:02;;;;;;;12.25;5.75;;;;;;;;;;5050248;28;20500;-82
2023/12/13 03:59:28;;;;;;;10.40;5.57;;;;;;;;;;5031030;28;20037;-82
2023/12/13 04:01:54;;;;;;;10.45;5.82;;;;;;;;;;5045982;28;20049;-82
2023/12/13 04:04:20;;;;;;;11.90;5.93;;;;;;;;;;5054385;28;20041;-82
2023/12/13 04:06:46;;;;;;;13.25;6.75;;;;;;;;;;5050044;28;20044;-82
2023/12/13 04:09:12;;;;;;;11.52;6.25;;;;;;;;;;5050202;28;20404;-82
2023/12/13 04:11:38;;;;;;;11.75;5.75;;;;;;;;;;5032598;28;20069;-81
2023/12/13 04:14:04;;;;;;;12.60;6.00;;;;;;;;;;5053735;28;20029;-81
2023/12/13 04:16:32;;;;;;;11.48;6.93;;;;;;;;;;5033435;28;20127;-81
2023/12/13 04:18:58;;;;;;;10.32;6.55;;;;;;;;;;5051249;28;20054;-81
2023/12/13 04:21:24;;;;;;;14.07;7.15;;;;;;;;;;5017401;28;20495;-82
2023/12/13 04:23:50;;;;;;;11.60;6.55;;;;;;;;;;5029154;28;20045;-82
2023/12/13 04:26:16;;;;;;;12.10;6.13;;;;;;;;;;5053669;28;20045;-82
2023/12/13 04:28:42;;;;;;;10.63;5.95;;;;;;;;;;5054083;28;20045;-82
2023/12/13 04:31:08;;;;;;;12.48;6.68;;;;;;;;;;5026648;28;20319;-82
2023/12/13 04:33:35;;;;;;;11.70;6.28;;;;;;;;;;5032800;28;20113;-82
2023/12/13 04:36:02;;;;;;;10.93;6.18;;;;;;;;;;5032737;28;20048;-82
2023/12/13 04:38:28;;;;;;;9.35;5.45;;;;;;;;;;5046649;28;20487;-82
2023/12/13 04:40:54;;;;;;;10.93;6.32;;;;;;;;;;5031601;28;20076;-82
2023/12/13 04:43:20;;;;;;;13.32;7.13;;;;;;;;;;5047761;28;20130;-82
2023/12/13 04:45:46;;;;;;;9.45;5.47;;;;;;;;;;5028662;28;20055;-82
2023/12/13 04:48:12;;;;;;;12.68;6.00;;;;;;;;;;5051039;28;20033;-82
2023/12/13 04:50:38;;;;;;;13.32;5.93;;;;;;;;;;5049888;28;20523;-82
2023/12/13 04:53:04;;;;;;;15.68;7.25;;;;;;;;;;5034305;28;20049;-82
2023/12/13 04:55:30;;;;;;;13.77;6.43;;;;;;;;;;5053954;28;20069;-82
2023/12/13 04:57:56;;;;;;;15.15;7.03;;;;;;;;;;5049923;28;20400;-82
2023/12/13 05:00:22;;;;;;;12.85;6.85;;;;;;;;;;5034156;28;20105;-82
2023/12/13 05:02:48;;;;;;;11.35;6.10;;;;;;;;;;5047440;28;20120;-82
2023/12/13 05:05:14;;;;;;;12.57;6.35;;;;;;;;;;5050499;28;20065;-82
2023/12/13 05:07:40;;;;;;;13.52;6.60;;;;;;;;;;5054384;28;20037;-82
2023/12/13 05:10:06;;;;;;;9.80;5.60;;;;;;;;;;5033355;28;20071;-82
2023/12/13 05:12:32;;;;;;;11.73;6.57;;;;;;;;;;5046337;28;20055;-82
2023/12/13 05:14:58;;;;;;;11.32;6.55;;;;;;;;;;5028597;28;20127;-82
2023/12/13 05:17:24;;;;;;;11.40;6.25;;;;;;;;;;5049167;28;20037;-82
2023/12/13 05:19:50;;;;;;;9.90;6.25;;;;;;;;;;5041603;28;20042;-82
2023/12/13 05:22:16;;;;;;;13.55;6.53;;;;;;;;;;5048011;28;20080;-82
2023/12/13 05:24:42;;;;;;;14.00;6.85;;;;;;;;;;5052473;28;20037;-82
2023/12/13 05:27:08;;;;;;;11.73;6.03;;;;;;;;;;5048585;28;20452;-82
2023/12/13 05:29:35;;;;;;;12.10;6.15;;;;;;;;;;5050101;28;20507;-82
2023/12/13 05:32:01;;;;;;;12.80;6.15;;;;;;;;;;5053545;28;20048;-82
2023/12/13 05:34:27;;;;;;;11.45;5.65;;;;;;;;;;5029781;28;20049;-82
2023/12/13 05:36:53;;;;;;;11.18;6.97;;;;;;;;;;5037059;28;20461;-82
2023/12/13 05:39:19;;;;;;;10.52;6.32;;;;;;;;;;5050141;28;20036;-82
2023/12/13 05:41:45;;;;;;;13.50;6.68;;;;;;;;;;5046617;28;20037;-82
2023/12/13 05:44:11;;;;;;;12.02;6.28;;;;;;;;;;5054799;28;20044;-82
2023/12/13 05:46:37;;;;;;;12.13;6.32;;;;;;;;;;5056227;28;20033;-82
2023/12/13 05:49:05;;;;;;;11.85;6.47;;;;;;;;;;5051804;28;20137;-82
2023/12/13 05:51:31;;;;;;;10.90;6.60;;;;;;;;;;5048476;28;20107;-82
2023/12/13 05:53:57;;;;;;;12.48;6.70;;;;;;;;;;5011154;28;20091;-82
2023/12/13 05:56:23;;;;;;;13.57;6.60;;;;;;;;;;5049035;28;20504;-82
2023/12/13 05:58:49;;;;;;;12.65;6.82;;;;;;;;;;5048170;28;20041;-82
2023/12/13 06:01:15;;;;;;;12.30;6.50;;;;;;;;;;5044939;28;20099;-82
2023/12/13 06:03:41;;;;;;;10.98;6.78;;;;;;;;;;5033005;28;20067;-82
2023/12/13 06:06:07;;;;;;;10.15;5.82;;;;;;;;;;5029971;28;20231;-82
2023/12/13 06:08:33;;;;;;;12.10;6.60;;;;;;;;;;5031360;28;20041;-82
2023/12/13 06:10:59;;;;;;;12.88;7.70;;;;;;;;;;5029377;28;20047;-82
2023/12/13 06:13:25;;;;;;;12.05;7.47;;;;;;;;;;5034670;28;20045;-82
2023/12/13 06:15:51;;;;;;;10.75;6.90;;;;;;;;;;5025596;28;20049;-83
2023/12/13 06:18:17;;;;;;;11.02;6.22;;;;;;;;;;5032826;28;20446;-83
2023/12/13 06:20:43;;;;;;;14.60;6.97;;;;;;;;;;5029935;28;20041;-82
2023/12/13 06:23:09;;;;;;;13.88;7.18;;;;;;;;;;5051895;28;20041;-80
2023/12/13 06:25:36;;;;;;;15.82;7.03;;;;;;;;;;5055016;28;20044;-81
2023/12/13 06:28:01;;;;;;;15.68;7.65;;;;;;;;;;5051719;28;20041;-81
2023/12/13 06:30:27;;;;;;;14.63;7.05;;;;;;;;;;5051988;28;20420;-81
2023/12/13 06:32:53;;;;;;;13.68;6.45;;;;;;;;;;5049118;28;20048;-81
2023/12/13 06:35:19;;;;;;;12.32;6.57;;;;;;;;;;5032034;28;20044;-80
2023/12/13 06:37:45;;;;;;;12.90;6.65;;;;;;;;;;5059810;28;20071;-81
2023/12/13 06:40:14;;;;;;;11.73;6.53;;;;;;;;;;5038081;28;20049;-82
2023/12/13 06:42:40;;;;;;;12.32;7.18;;;;;;;;;;5036062;28;20073;-82
2023/12/13 06:45:06;;;;;;;10.63;6.18;;;;;;;;;;5042944;28;20037;-81
2023/12/13 06:47:32;;;;;;;13.15;6.45;;;;;;;;;;5044382;28;20066;-81
2023/12/13 06:49:58;;;;;;;8.73;6.38;;;;;;;;;;5041603;28;20053;-82
2023/12/13 06:52:25;;;;;;;13.82;6.40;;;;;;;;;;5047477;28;20088;-82
2023/12/13 06:54:51;;;;;;;14.95;6.97;;;;;;;;;;5027082;28;20056;-82
2023/12/13 06:57:17;;;;;;;9.80;5.90;;;;;;;;;;5048126;28;20095;-80
2023/12/13 06:59:43;;;;;;;12.55;7.40;;;;;;;;;;5051286;28;20488;-82
2023/12/13 07:02:09;;;;;;;13.68;6.72;;;;;;;;;;5048013;28;20055;-81
2023/12/13 07:04:38;;;;;;;15.52;7.93;;;;;;;;;;5040031;28;20076;-81
2023/12/13 07:07:04;;;;;;;13.18;7.68;;;;;;;;;;5050646;28;20033;-81
2023/12/13 07:09:33;;;;;;;15.05;7.70;;;;;;;;;;5054730;28;20048;-81
2023/12/13 07:11:59;;;;;;;11.38;7.10;;;;;;;;;;5035274;28;20048;-82
2023/12/13 07:14:25;;;;;;;14.02;7.22;;;;;;;;;;5051595;28;20079;-81
2023/12/13 07:16:51;;;;;;;11.88;6.93;;;;;;;;;;5032302;28;20550;-82
2023/12/13 07:19:17;;;;;;;12.18;7.35;;;;;;;;;;5056029;28;20029;-80
2023/12/13 07:21:43;;;;;;;12.98;6.70;;;;;;;;;;5051459;28;20384;-81
2023/12/13 07:24:09;;;;;;;10.88;6.18;;;;;;;;;;5032387;28;20040;-82
2023/12/13 07:26:35;;;;;;;10.50;6.60;;;;;;;;;;5058203;28;20037;-81
2023/12/13 07:29:02;;;;;;;12.70;7.15;;;;;;;;;;5036977;28;20041;-83
2023/12/13 07:31:28;;;;;;;10.32;5.93;;;;;;;;;;5027348;28;20099;-83
2023/12/13 07:33:54;;;;;;;14.82;6.85;;;;;;;;;;5028048;28;20041;-84
2023/12/13 07:36:20;;;;;;;10.80;6.05;;;;;;;;;;5029130;28;20431;-84
2023/12/13 07:38:46;;;;;;;10.90;6.20;;;;;;;;;;5026074;28;20037;-84
2023/12/13 07:41:13;;;;;;;11.43;6.68;;;;;;;;;;5034602;28;20139;-84
2023/12/13 07:43:39;;;;;;;13.32;7.35;;;;;;;;;;5032550;28;20511;-84
2023/12/13 07:46:05;;;;;;;15.05;6.30;;;;;;;;;;5031908;28;20037;-84
2023/12/13 07:48:31;;;;;;;10.57;6.03;;;;;;;;;;5017533;28;20036;-84
2023/12/13 07:50:58;;;;;;;9.07;5.45;;;;;;;;;;5033303;28;20526;-86
2023/12/13 07:53:25;;;;;;;13.38;6.97;;;;;;;;;;5025450;28;20041;-85
2023/12/13 07:55:51;;;;;;;13.13;6.03;;;;;;;;;;5026117;28;20040;-85
2023/12/13 07:58:18;;;;;;;11.82;5.80;;;;;;;;;;5029472;28;20043;-85
2023/12/13 08:00:44;;;;;;;10.32;5.78;;;;;;;;;;5009179;28;20048;-85
2023/12/13 08:03:09;;;;;;;9.73;6.10;;;;;;;;;;5026736;28;20041;-85
2023/12/13 08:05:35;;;;;;;12.50;6.45;;;;;;;;;;5029316;28;20502;-85
2023/12/13 08:08:01;;;;;;;12.55;6.65;;;;;;;;;;5008053;28;20120;-86
2023/12/13 08:10:27;;;;;;;9.80;6.38;;;;;;;;;;5026927;28;20450;-85
2023/12/13 08:12:54;;;;;;;12.82;6.03;;;;;;;;;;5009421;28;20033;-85
2023/12/13 08:15:20;;;;;;;12.65;6.90;;;;;;;;;;5028624;28;20400;-84
2023/12/13 08:17:46;;;;;;;11.23;6.03;;;;;;;;;;5026516;28;20461;-85
2023/12/13 08:20:12;;;;;;;11.60;6.15;;;;;;;;;;5032714;28;20033;-85
2023/12/13 08:22:38;;;;;;;10.07;6.60;;;;;;;;;;5029476;28;20420;-86
2023/12/13 08:25:04;;;;;;;10.68;6.10;;;;;;;;;;5013751;28;20037;-86
2023/12/13 08:27:30;;;;;;;12.20;6.80;;;;;;;;;;5024176;28;20041;-87
2023/12/13 08:29:56;;;;;;;11.40;5.65;;;;;;;;;;5023466;28;20038;-88
2023/12/13 08:32:22;;;;;;;13.18;6.78;;;;;;;;;;5009194;28;20566;-87
2023/12/13 08:34:49;;;;;;;15.68;6.63;;;;;;;;;;5016755;28;20041;-88
2023/12/13 08:37:15;;;;;;;11.63;6.22;;;;;;;;;;5014516;28;20041;-88
2023/12/13 08:39:41;;;;;;;12.35;7.00;;;;;;;;;;5028790;28;20103;-87
2023/12/13 08:42:09;;;;;;;12.30;6.50;;;;;;;;;;5012286;28;20500;-87
2023/12/13 08:44:35;;;;;;;12.07;6.60;;;;;;;;;;5006436;28;20116;-85
2023/12/13 08:47:01;;;;;;;12.32;6.15;;;;;;;;;;5031512;28;20029;-85
2023/12/13 08:49:27;;;;;;;12.82;7.10;;;;;;;;;;5033058;28;20408;-84
2023/12/13 08:51:53;;;;;;;11.25;6.03;;;;;;;;;;5036293;28;20049;-84
2023/12/13 08:54:19;;;;;;;12.35;6.40;;;;;;;;;;5031659;28;20044;-85
2023/12/13 08:56:45;;;;;;;12.43;7.07;;;;;;;;;;5043128;28;20056;-86
2023/12/13 08:59:11;;;;;;;12.00;6.15;;;;;;;;;;5025268;28;20037;-84
2023/12/13 09:01:37;;;;;;;12.77;6.72;;;;;;;;;;5010575;28;20040;-85
2023/12/13 09:04:03;;;;;;;13.88;7.20;;;;;;;;;;5011176;28;20052;-86
2023/12/13 09:06:29;;;;;;;13.75;6.18;;;;;;;;;;5012078;28;20040;-85
2023/12/13 09:08:56;;;;;;;10.35;6.85;;;;;;;;;;5010332;28;20064;-84
2023/12/13 09:11:22;;;;;;;15.00;7.63;;;;;;;;;;5011331;28;20036;-85
2023/12/13 09:13:48;;;;;;;11.80;6.28;;;;;;;;;;5046913;28;20065;-86
2023/12/13 09:16:14;;;;;;;11.82;6.57;;;;;;;;;;5027207;28;20468;-84
2023/12/13 09:18:44;;;;;;;12.27;6.78;;;;;;;;;;5050056;28;20037;-84
2023/12/13 09:21:10;;;;;;;12.50;6.68;;;;;;;;;;5052116;28;20033;-83
2023/12/13 09:23:36;;;;;;;15.38;7.28;;;;;;;;;;5037706;28;20855;-83
2023/12/13 09:26:04;;;;;;;18.42;8.27;;;;;;;;;;5029209;28;20037;-84
2023/12/13 09:28:30;;;;;;;14.65;7.28;;;;;;;;;;5028338;28;20048;-83
2023/12/13 09:30:57;;;;;;;15.50;7.90;;;;;;;;;;5035454;28;20365;-84
2023/12/13 09:33:23;;;;;;;14.23;7.20;;;;;;;;;;5028753;28;20055;-84
2023/12/13 09:35:49;;;;;;;14.20;7.30;;;;;;;;;;5028392;28;20069;-84
2023/12/13 09:38:16;;;;;;;13.63;7.40;;;;;;;;;;5029839;28;20488;-84
2023/12/13 09:40:42;;;;;;;15.68;7.03;;;;;;;;;;5032498;28;20032;-83
2023/12/13 09:43:12;;;;;;;13.32;7.18;;;;;;;;;;5026866;28;20044;-83
2023/12/13 09:45:39;;;;;;;12.23;7.15;;;;;;;;;;5033369;28;20036;-83
2023/12/13 09:48:06;;;;;;;15.88;7.70;;;;;;;;;;5045996;28;20096;-84
2023/12/13 09:50:34;;;;;;;11.25;6.05;;;;;;;;;;5044953;28;20056;-84
2023/12/13 09:53:00;;;;;;;15.52;6.95;;;;;;;;;;5044687;28;20507;-85
2023/12/13 09:55:26;;;;;;;11.23;6.68;;;;;;;;;;5042403;28;20047;-83
2023/12/13 09:57:52;;;;;;;13.57;6.50;;;;;;;;;;5046417;28;20092;-82
2023/12/13 10:00:19;;;;;;;13.57;6.88;;;;;;;;;;5026019;28;20036;-84
2023/12/13 10:02:46;;;;;;;11.23;6.00;;;;;;;;;;5041162;28;20037;-82
2023/12/13 10:05:12;;;;;;;13.75;6.75;;;;;;;;;;5023977;28;20048;-84
2023/12/13 10:07:39;;;;;;;11.93;6.35;;;;;;;;;;5047752;28;20179;-86
2023/12/13 10:10:05;;;;;;;12.90;7.07;;;;;;;;;;5029052;28;20068;-86
2023/12/13 10:12:32;;;;;;;13.07;6.57;;;;;;;;;;5028070;28;20037;-84
2023/12/13 10:15:06;;;;;;;13.52;7.13;;;;;;;;;;5008875;28;20049;-84
2023/12/13 10:17:32;;;;;;;11.57;6.97;;;;;;;;;;5016149;28;20111;-84
2023/12/13 10:19:58;;;;;;;12.55;6.30;;;;;;;;;;5029849;28;20037;-84
2023/12/13 10:22:25;;;;;;;16.40;7.60;;;;;;;;;;5028610;28;20454;-83
2023/12/13 10:24:51;;;;;;;12.98;6.90;;;;;;;;;;5029511;28;20064;-84
2023/12/13 10:27:18;;;;;;;13.55;7.43;;;;;;;;;;5048738;28;20041;-84
2023/12/13 10:29:46;;;;;;;17.20;7.45;;;;;;;;;;5032133;28;20083;-83
2023/12/13 10:32:12;;;;;;;10.73;6.65;;;;;;;;;;5027366;28;20068;-85
2023/12/13 10:34:38;;;;;;;12.25;6.75;;;;;;;;;;5013367;28;20048;-84
2023/12/13 10:37:05;;;;;;;13.85;7.03;;;;;;;;;;5031026;28;20045;-84
2023/12/13 10:39:32;;;;;;;13.48;7.40;;;;;;;;;;5033231;28;20174;-84
2023/12/13 10:41:59;;;;;;;14.15;7.72;;;;;;;;;;5023414;28;20124;-83
2023/12/13 10:44:27;;;;;;;14.57;7.43;;;;;;;;;;5027292;28;20144;-84
2023/12/13 10:46:58;;;;;;;13.63;6.85;;;;;;;;;;5027232;28;20140;-84
2023/12/13 10:49:24;;;;;;;15.88;8.13;;;;;;;;;;5032202;28;20056;-84
2023/12/13 10:51:51;;;;;;;14.38;7.05;;;;;;;;;;5025165;28;20107;-84
2023/12/13 10:54:18;;;;;;;15.70;7.00;;;;;;;;;;5033663;28;20048;-84
2023/12/13 10:56:44;;;;;;;14.30;6.90;;;;;;;;;;5026558;28;20046;-85
2023/12/13 10:59:10;;;;;;;14.93;7.35;;;;;;;;;;5024297;28;20033;-84
2023/12/13 11:01:39;;;;;;;13.23;7.30;;;;;;;;;;5008435;28;20045;-84
2023/12/13 11:04:08;;;;;;;12.35;7.30;;;;;;;;;;5025304;28;20037;-84
2023/12/13 11:06:36;;;;;;;14.30;6.88;;;;;;;;;;5028011;28;20038;-83
2023/12/13 11:09:13;;;;;;;22.33;7.88;;;;;;;;;;5043933;28;20531;-84
2023/12/13 11:11:39;;;;;;;14.35;6.93;;;;;;;;;;5032475;28;20096;-84
2023/12/13 11:14:06;;;;;;;15.38;7.05;;;;;;;;;;5032958;28;20480;-85
2023/12/13 11:16:38;;;;;;;14.60;6.80;;;;;;;;;;5033548;28;20101;-84
2023/12/13 11:19:04;;;;;;;13.35;6.93;;;;;;;;;;5033067;28;20120;-84
2023/12/13 11:21:31;;;;;;;12.40;7.75;;;;;;;;;;5036473;28;20128;-84
2023/12/13 11:24:00;;;;;;;14.60;6.95;;;;;;;;;;5016309;28;20049;-84
2023/12/13 11:26:32;;;;;;;11.75;7.55;;;;;;;;;;5033682;28;20099;-84
2023/12/13 11:29:00;;;;;;;13.20;6.75;;;;;;;;;;5036117;28;20072;-85
2023/12/13 11:31:26;;;;;;;13.63;6.78;;;;;;;;;;5030270;28;20131;-83
2023/12/13 11:33:56;;;;;;;14.65;6.75;;;;;;;;;;5031345;28;20117;-83
2023/12/13 11:36:23;;;;;;;12.63;7.35;;;;;;;;;;5051710;28;20048;-83
2023/12/13 11:38:51;;;;;;;13.98;7.13;;;;;;;;;;5031832;28;20049;-82
2023/12/13 11:41:17;;;;;;;14.52;6.10;;;;;;;;;;5017560;28;20056;-84
2023/12/13 11:43:44;;;;;;;11.55;6.57;;;;;;;;;;5025051;28;20041;-83
2023/12/13 11:46:10;;;;;;;13.27;7.47;;;;;;;;;;5029490;28;20037;-83
2023/12/13 11:48:36;;;;;;;13.43;7.10;;;;;;;;;;5030359;28;20088;-83
2023/12/13 11:51:02;;;;;;;17.55;7.70;;;;;;;;;;5052148;28;20049;-84
2023/12/13 11:53:28;;;;;;;15.90;6.35;;;;;;;;;;5029463;28;20111;-84
2023/12/13 11:55:56;;;;;;;14.52;6.97;;;;;;;;;;5046567;28;20510;-84
2023/12/13 11:58:22;;;;;;;13.75;6.90;;;;;;;;;;5049743;28;20044;-84
2023/12/13 12:00:48;;;;;;;12.90;6.63;;;;;;;;;;5050248;28;20041;-84
2023/12/13 12:03:14;;;;;;;12.27;6.55;;;;;;;;;;5031010;28;20048;-83
2023/12/13 12:05:43;;;;;;;14.43;7.95;;;;;;;;;;5050717;28;20187;-83
2023/12/13 12:08:11;;;;;;;16.02;8.05;;;;;;;;;;5042126;28;20041;-84
2023/12/13 12:10:37;;;;;;;12.18;6.93;;;;;;;;;;5048745;28;20404;-82
2023/12/13 12:13:04;;;;;;;12.20;6.63;;;;;;;;;;5049282;28;20512;-82
2023/12/13 12:15:31;;;;;;;11.02;5.97;;;;;;;;;;5036541;28;20040;-83
2023/12/13 12:18:00;;;;;;;13.07;6.57;;;;;;;;;;5048545;28;20048;-83
2023/12/13 12:20:26;;;;;;;13.43;6.32;;;;;;;;;;5023007;28;20235;-84
2023/12/13 12:22:52;;;;;;;12.95;6.50;;;;;;;;;;5031416;28;20071;-84
2023/12/13 12:25:20;;;;;;;13.50;7.72;;;;;;;;;;5032319;28;20045;-86
2023/12/13 12:27:48;;;;;;;14.10;7.18;;;;;;;;;;5010950;28;20037;-84
2023/12/13 12:30:14;;;;;;;13.45;7.22;;;;;;;;;;5027733;28;20492;-83
2023/12/13 12:32:40;;;;;;;14.48;7.45;;;;;;;;;;5013341;28;20091;-83
2023/12/13 12:35:07;;;;;;;12.50;6.80;;;;;;;;;;5021097;28;20045;-84
2023/12/13 12:37:33;;;;;;;11.50;7.22;;;;;;;;;;5023330;28;20041;-84
2023/12/13 12:39:59;;;;;;;11.90;7.90;;;;;;;;;;5026048;28;20041;-84
2023/12/13 12:42:25;;;;;;;12.40;7.18;;;;;;;;;;5028951;28;20080;-84
2023/12/13 12:44:51;;;;;;;13.07;6.97;;;;;;;;;;5025902;28;20084;-84
2023/12/13 12:47:18;;;;;;;12.65;7.05;;;;;;;;;;5026597;28;20048;-84
2023/12/13 12:49:44;;;;;;;12.40;7.30;;;;;;;;;;5048653;28;20041;-84
2023/12/13 12:52:10;;;;;;;15.00;6.93;;;;;;;;;;5020731;28;20060;-84
2023/12/13 12:54:36;;;;;;;14.30;7.57;;;;;;;;;;5048211;28;20408;-84
2023/12/13 12:57:02;;;;;;;16.30;8.05;;;;;;;;;;5047174;28;20041;-83
2023/12/13 12:59:28;;;;;;;11.80;7.22;;;;;;;;;;5026904;28;20040;-84
2023/12/13 13:01:54;;;;;;;15.18;7.82;;;;;;;;;;5012631;28;20033;-83
2023/12/13 13:04:20;;;;;;;15.13;7.80;;;;;;;;;;5030988;28;20033;-83
2023/12/13 13:06:47;;;;;;;14.82;7.72;;;;;;;;;;5034260;28;20040;-83
2023/12/13 13:09:13;;;;;;;13.02;7.63;;;;;;;;;;5036564;28;20091;-83
2023/12/13 13:11:41;;;;;;;17.58;8.68;;;;;;;;;;5034376;28;20037;-83
2023/12/13 13:14:07;;;;;;;14.00;7.65;;;;;;;;;;5045887;28;20041;-83
2023/12/13 13:16:33;;;;;;;16.00;9.07;;;;;;;;;;5043961;28;20033;-84
2023/12/13 13:18:59;;;;;;;19.08;9.20;;;;;;;;;;5043963;28;20049;-84
2023/12/13 13:21:26;;;;;;;14.73;7.65;;;;;;;;;;5037872;28;20033;-84
2023/12/13 13:23:52;;;;;;;16.45;8.68;;;;;;;;;;5027518;28;20045;-84
2023/12/13 13:26:18;;;;;;;15.68;7.53;;;;;;;;;;5046950;28;20037;-84
2023/12/13 13:28:44;;;;;;;18.05;9.23;;;;;;;;;;5041471;28;20352;-84
2023/12/13 13:31:11;;;;;;;16.08;8.30;;;;;;;;;;5025896;28;20123;-84
2023/12/13 13:33:38;;;;;;;15.27;8.02;;;;;;;;;;5039977;28;20076;-84
2023/12/13 13:36:05;;;;;;;15.93;9.40;;;;;;;;;;5044819;28;20091;-84
2023/12/13 13:38:31;;;;;;;14.88;8.60;;;;;;;;;;5045264;28;20033;-84
2023/12/13 13:40:57;;;;;;;15.82;7.40;;;;;;;;;;5043618;28;20377;-84
2023/12/13 13:43:23;;;;;;;15.18;8.38;;;;;;;;;;5027010;28;20403;-84
2023/12/13 13:45:49;;;;;;;16.55;8.32;;;;;;;;;;5042663;28;20045;-84
2023/12/13 13:48:16;;;;;;;15.55;9.07;;;;;;;;;;5042481;28;20112;-84
2023/12/13 13:50:43;;;;;;;15.63;8.52;;;;;;;;;;5044099;28;20068;-84
2023/12/13 13:53:09;;;;;;;17.30;8.05;;;;;;;;;;5044651;28;20136;-83
2023/12/13 13:55:35;;;;;;;19.17;9.05;;;;;;;;;;5042221;28;20040;-83
2023/12/13 13:58:01;;;;;;;16.67;8.27;;;;;;;;;;5043694;28;20129;-84
2023/12/13 14:00:28;;;;;;;17.77;9.07;;;;;;;;;;5023262;28;20104;-84
2023/12/13 14:02:54;;;;;;;16.70;8.35;;;;;;;;;;5042750;28;20526;-83
2023/12/13 14:05:20;;;;;;;18.92;9.20;;;;;;;;;;5033450;28;20044;-82
2023/12/13 14:07:46;;;;;;;15.10;9.05;;;;;;;;;;5024480;28;20045;-84
2023/12/13 14:10:12;;;;;;;15.85;9.90;;;;;;;;;;5046136;28;20036;-84
2023/12/13 14:12:38;;;;;;;16.83;7.90;;;;;;;;;;5028734;28;20059;-85
2023/12/13 14:15:04;;;;;;;15.63;9.10;;;;;;;;;;5027817;28;20037;-85
2023/12/13 14:17:30;;;;;;;14.55;8.93;;;;;;;;;;5028873;28;20048;-85
2023/12/13 14:19:56;;;;;;;13.95;9.18;;;;;;;;;;5005067;28;20045;-85
2023/12/13 14:22:22;;;;;;;16.23;8.63;;;;;;;;;;5025606;28;20041;-85
2023/12/13 14:24:49;;;;;;;17.98;8.38;;;;;;;;;;5012833;28;20060;-85